sensor_id;sensor_type;location;lat;lon;timestamp;pressure;altitude;pressure_sealevel;temperature;humidity
77149;BME280;66122;47.130;16.844;2023-01-01T00:04:19;100496.84;;;9.19;82.90
77149;BME280;66122;47.130;16.844;2023-01-01T00:14:21;100454.03;;;8.85;83.73
77149;BME280;66122;47.130;16.844;2023-01-01T00:24:24;100498.84;;;8.88;84.28
77149;BME280;66122;47.130;16.844;2023-01-01T00:34:27;100496.59;;;8.77;84.22
77149;BME280;66122;47.130;16.844;2023-01-01T00:44:29;100529.06;;;8.81;85.13
77149;BME280;66122;47.130;16.844;2023-01-01T00:54:32;100517.44;;;8.60;86.01
77149;BME280;66122;47.130;16.844;2023-01-01T01:04:35;100518.31;;;8.60;85.36
77149;BME280;66122;47.130;16.844;2023-01-01T01:14:37;100555.00;;;8.70;85.91
77149;BME280;66122;47.130;16.844;2023-01-01T01:24:40;100507.06;;;8.28;86.62
77149;BME280;66122;47.130;16.844;2023-01-01T01:34:43;100545.38;;;8.41;87.11
77149;BME280;66122;47.130;16.844;2023-01-01T01:54:50;100501.44;;;8.38;87.48
77149;BME280;66122;47.130;16.844;2023-01-01T02:04:53;100482.44;;;8.27;88.34
77149;BME280;66122;47.130;16.844;2023-01-01T02:14:56;100473.31;;;8.37;88.18
77149;BME280;66122;47.130;16.844;2023-01-01T02:25:27;100471.22;;;8.72;86.83
77149;BME280;66122;47.130;16.844;2023-01-01T02:35:39;100450.91;;;8.74;86.60
77149;BME280;66122;47.130;16.844;2023-01-01T02:45:44;100437.38;;;8.58;87.33
77149;BME280;66122;47.130;16.844;2023-01-01T02:56:05;100480.34;;;8.88;87.38
77149;BME280;66122;47.130;16.844;2023-01-01T03:06:19;100468.88;;;8.89;87.86
77149;BME280;66122;47.130;16.844;2023-01-01T03:16:48;100459.69;;;8.99;86.60
77149;BME280;66122;47.130;16.844;2023-01-01T03:26:56;100428.25;;;8.67;87.39
77149;BME280;66122;47.130;16.844;2023-01-01T03:37:04;100428.03;;;8.73;88.92
77149;BME280;66122;47.130;16.844;2023-01-01T03:47:08;100421.03;;;8.72;88.11
77149;BME280;66122;47.130;16.844;2023-01-01T03:58:09;100394.31;;;8.56;89.09
77149;BME280;66122;47.130;16.844;2023-01-01T04:07:41;100416.09;;;8.63;89.95
77149;BME280;66122;47.130;16.844;2023-01-01T04:17:43;100412.47;;;8.40;90.35
77149;BME280;66122;47.130;16.844;2023-01-01T04:27:46;100429.66;;;8.52;89.76
77149;BME280;66122;47.130;16.844;2023-01-01T04:37:49;100461.00;;;8.63;90.34
77149;BME280;66122;47.130;16.844;2023-01-01T04:47:51;100475.94;;;8.64;90.34
77149;BME280;66122;47.130;16.844;2023-01-01T04:57:54;100447.28;;;8.25;90.62
77149;BME280;66122;47.130;16.844;2023-01-01T05:07:56;100465.97;;;8.45;91.47
77149;BME280;66122;47.130;16.844;2023-01-01T05:17:59;100452.81;;;8.44;91.64
77149;BME280;66122;47.130;16.844;2023-01-01T05:28:01;100435.06;;;8.49;91.27
77149;BME280;66122;47.130;16.844;2023-01-01T05:38:04;100445.09;;;8.64;90.14
77149;BME280;66122;47.130;16.844;2023-01-01T05:48:07;100472.81;;;8.77;89.72
77149;BME280;66122;47.130;16.844;2023-01-01T05:58:09;100437.28;;;8.86;89.98
77149;BME280;66122;47.130;16.844;2023-01-01T06:08:12;100458.66;;;9.03;89.39
77149;BME280;66122;47.130;16.844;2023-01-01T06:18:15;100469.03;;;8.84;91.03
77149;BME280;66122;47.130;16.844;2023-01-01T06:28:18;100468.97;;;8.61;91.91
77149;BME280;66122;47.130;16.844;2023-01-01T06:38:20;100488.63;;;8.52;92.01
77149;BME280;66122;47.130;16.844;2023-01-01T06:48:23;100498.13;;;8.04;93.20
77149;BME280;66122;47.130;16.844;2023-01-01T06:58:26;100522.13;;;6.74;95.87
77149;BME280;66122;47.130;16.844;2023-01-01T07:08:29;100545.22;;;6.63;96.68
77149;BME280;66122;47.130;16.844;2023-01-01T07:18:32;100519.41;;;6.42;97.63
77149;BME280;66122;47.130;16.844;2023-01-01T07:28:34;100554.50;;;6.78;96.26
77149;BME280;66122;47.130;16.844;2023-01-01T07:38:37;100544.03;;;7.09;92.48
77149;BME280;66122;47.130;16.844;2023-01-01T07:48:39;100513.56;;;6.66;91.45
77149;BME280;66122;47.130;16.844;2023-01-01T07:58:42;100544.84;;;6.78;92.31
77149;BME280;66122;47.130;16.844;2023-01-01T08:08:44;100577.34;;;7.42;90.33
77149;BME280;66122;47.130;16.844;2023-01-01T08:18:47;100606.88;;;7.85;84.81
77149;BME280;66122;47.130;16.844;2023-01-01T08:28:50;100636.88;;;7.20;88.81
77149;BME280;66122;47.130;16.844;2023-01-01T08:38:59;100664.91;;;6.87;91.29
77149;BME280;66122;47.130;16.844;2023-01-01T08:49:02;100641.81;;;7.32;88.90
77149;BME280;66122;47.130;16.844;2023-01-01T08:59:04;100629.22;;;8.05;85.71
77149;BME280;66122;47.130;16.844;2023-01-01T09:09:07;100610.50;;;9.70;77.17
77149;BME280;66122;47.130;16.844;2023-01-01T09:19:10;100621.97;;;11.05;73.48
77149;BME280;66122;47.130;16.844;2023-01-01T09:29:13;100636.22;;;9.90;77.25
77149;BME280;66122;47.130;16.844;2023-01-01T09:39:20;100634.00;;;9.55;80.04
77149;BME280;66122;47.130;16.844;2023-01-01T09:49:39;100619.41;;;10.38;76.20
77149;BME280;66122;47.130;16.844;2023-01-01T09:59:44;100582.69;;;10.50;76.59
77149;BME280;66122;47.130;16.844;2023-01-01T10:30:25;100578.28;;;15.83;57.45
77149;BME280;66122;47.130;16.844;2023-01-01T10:40:29;100594.44;;;15.38;57.81
77149;BME280;66122;47.130;16.844;2023-01-01T11:00:56;100578.03;;;18.00;52.12
77149;BME280;66122;47.130;16.844;2023-01-01T11:11:01;100583.22;;;16.59;55.69
77149;BME280;66122;47.130;16.844;2023-01-01T11:21:04;100561.63;;;17.91;52.23
77149;BME280;66122;47.130;16.844;2023-01-01T11:41:11;100541.97;;;20.02;46.91
77149;BME280;66122;47.130;16.844;2023-01-01T11:51:31;100550.00;;;21.11;43.98
77149;BME280;66122;47.130;16.844;2023-01-01T12:01:39;100532.78;;;21.43;42.42
77149;BME280;66122;47.130;16.844;2023-01-01T12:11:50;100560.63;;;21.12;42.80
77149;BME280;66122;47.130;16.844;2023-01-01T12:21:58;100562.19;;;20.62;44.14
77149;BME280;66122;47.130;16.844;2023-01-01T13:13:45;100563.22;;;13.36;65.75
77149;BME280;66122;47.130;16.844;2023-01-01T13:23:49;100565.84;;;12.31;70.80
77149;BME280;66122;47.130;16.844;2023-01-01T13:44:33;100606.88;;;11.07;79.54
77149;BME280;66122;47.130;16.844;2023-01-01T13:54:45;100620.28;;;10.60;79.71
77149;BME280;66122;47.130;16.844;2023-01-01T14:05:12;100627.88;;;10.24;82.26
77149;BME280;66122;47.130;16.844;2023-01-01T14:15:29;100599.72;;;9.75;83.73
77149;BME280;66122;47.130;16.844;2023-01-01T14:25:32;100619.44;;;9.43;85.34
77149;BME280;66122;47.130;16.844;2023-01-01T14:35:35;100610.25;;;9.02;87.52
77149;BME280;66122;47.130;16.844;2023-01-01T14:45:41;100653.19;;;8.84;87.75
77149;BME280;66122;47.130;16.844;2023-01-01T14:55:46;100631.94;;;8.31;88.75
77149;BME280;66122;47.130;16.844;2023-01-01T15:05:58;100673.00;;;8.12;90.08
77149;BME280;66122;47.130;16.844;2023-01-01T15:16:17;100693.16;;;7.83;89.94
77149;BME280;66122;47.130;16.844;2023-01-01T15:36:36;100672.13;;;7.14;89.55
77149;BME280;66122;47.130;16.844;2023-01-01T15:46:44;100670.84;;;6.96;91.60
77149;BME280;66122;47.130;16.844;2023-01-01T15:56:46;100677.44;;;6.77;91.85
77149;BME280;66122;47.130;16.844;2023-01-01T16:06:51;100657.50;;;6.28;95.51
77149;BME280;66122;47.130;16.844;2023-01-01T16:16:55;100713.63;;;6.29;96.34
77149;BME280;66122;47.130;16.844;2023-01-01T16:27:02;100689.78;;;5.97;94.96
77149;BME280;66122;47.130;16.844;2023-01-01T16:37:05;100685.84;;;5.70;95.32
77149;BME280;66122;47.130;16.844;2023-01-01T16:47:08;100694.09;;;5.52;98.99
77149;BME280;66122;47.130;16.844;2023-01-01T16:57:10;100733.53;;;5.52;100.00
77149;BME280;66122;47.130;16.844;2023-01-01T17:07:13;100751.09;;;5.49;100.00
77149;BME280;66122;47.130;16.844;2023-01-01T17:17:17;100713.25;;;5.09;100.00
77149;BME280;66122;47.130;16.844;2023-01-01T17:27:20;100714.38;;;4.91;100.00
77149;BME280;66122;47.130;16.844;2023-01-01T17:37:25;100736.41;;;4.83;100.00
77149;BME280;66122;47.130;16.844;2023-01-01T17:47:29;100718.41;;;4.57;100.00
77149;BME280;66122;47.130;16.844;2023-01-01T17:57:34;100726.41;;;4.48;100.00
77149;BME280;66122;47.130;16.844;2023-01-01T18:07:38;100757.97;;;4.42;100.00
77149;BME280;66122;47.130;16.844;2023-01-01T18:17:41;100766.19;;;4.14;100.00
77149;BME280;66122;47.130;16.844;2023-01-01T18:27:46;100777.75;;;3.97;100.00
77149;BME280;66122;47.130;16.844;2023-01-01T18:37:55;100736.22;;;3.60;100.00
77149;BME280;66122;47.130;16.844;2023-01-01T18:48:00;100781.34;;;3.86;100.00
77149;BME280;66122;47.130;16.844;2023-01-01T19:08:21;100782.59;;;3.50;100.00
77149;BME280;66122;47.130;16.844;2023-01-01T19:18:28;100756.56;;;3.31;100.00
77149;BME280;66122;47.130;16.844;2023-01-01T19:28:36;100734.09;;;2.98;100.00
77149;BME280;66122;47.130;16.844;2023-01-01T19:38:39;100787.19;;;3.20;100.00
77149;BME280;66122;47.130;16.844;2023-01-01T19:48:41;100730.78;;;2.74;100.00
77149;BME280;66122;47.130;16.844;2023-01-01T19:58:45;100745.72;;;2.56;100.00
77149;BME280;66122;47.130;16.844;2023-01-01T20:08:48;100756.16;;;2.65;100.00
77149;BME280;66122;47.130;16.844;2023-01-01T20:18:51;100737.09;;;2.40;100.00
77149;BME280;66122;47.130;16.844;2023-01-01T20:28:53;100743.22;;;2.31;100.00
77149;BME280;66122;47.130;16.844;2023-01-01T20:39:14;100747.69;;;2.14;100.00
77149;BME280;66122;47.130;16.844;2023-01-01T20:49:18;100777.25;;;2.28;100.00
77149;BME280;66122;47.130;16.844;2023-01-01T20:59:21;100757.25;;;2.12;100.00
77149;BME280;66122;47.130;16.844;2023-01-01T21:09:40;100745.94;;;2.10;100.00
77149;BME280;66122;47.130;16.844;2023-01-01T21:19:44;100762.44;;;2.30;100.00
77149;BME280;66122;47.130;16.844;2023-01-01T21:29:48;100769.50;;;1.96;100.00
77149;BME280;66122;47.130;16.844;2023-01-01T21:39:52;100740.75;;;1.98;100.00
77149;BME280;66122;47.130;16.844;2023-01-01T21:49:55;100730.34;;;1.92;100.00
77149;BME280;66122;47.130;16.844;2023-01-01T21:59:57;100711.16;;;1.90;100.00
77149;BME280;66122;47.130;16.844;2023-01-01T22:10:13;100697.22;;;1.92;100.00
77149;BME280;66122;47.130;16.844;2023-01-01T22:20:25;100717.25;;;1.87;100.00
77149;BME280;66122;47.130;16.844;2023-01-01T22:30:48;100698.16;;;1.73;100.00
77149;BME280;66122;47.130;16.844;2023-01-01T22:40:51;100704.28;;;1.65;100.00
77149;BME280;66122;47.130;16.844;2023-01-01T22:51:04;100740.78;;;1.89;100.00
77149;BME280;66122;47.130;16.844;2023-01-01T23:01:08;100697.34;;;1.58;100.00
77149;BME280;66122;47.130;16.844;2023-01-01T23:11:11;100690.41;;;1.32;100.00
77149;BME280;66122;47.130;16.844;2023-01-01T23:21:19;100699.09;;;1.46;100.00
77149;BME280;66122;47.130;16.844;2023-01-01T23:31:29;100723.44;;;1.64;100.00
77149;BME280;66122;47.130;16.844;2023-01-01T23:41:32;100683.47;;;1.34;100.00
77149;BME280;66122;47.130;16.844;2023-01-01T23:51:36;100668.63;;;1.45;100.00
